Monastir Skanes, Tunisia

09:02 CET le 14 février 2016 (GMT +0100)
Habib Bourguiba | | Change Station
CLOSE
Current Station
Aéroport
Location: Habib Bourguiba,
Altitude: 7 ft
Stations météo à proximité

Alt. 7 ft 35.76 °N, 10.75 °E | Updated 32 minutes ago

Clear
Ciel dégagé
63 ° F
Paraît 63 ° F
N
7
Vent Variable Vent de ESE

Aujourd'hui
Haut(e) -- | Bas -- ° F
--% Risque de précip.
Hier
Haut(e) -- | Bas -- ° F
Precip. -- pouce
Pression 29.71 pouce
Visibilité 5.0 Miles terrestres
Nuages
Point de rosée 59 ° F
Humidité 88%
Précipitations 0.00 pouce
Profondeur de la couche neigeuse Non disponible.
7:05 AM 5:57 PM
Lune montante, 39% visible
METAR DTMB 140730Z 12006KT 8000 NSC 17/15 Q1006 NOSIG
Pression 29.71 pouce
Visibilité 5.0 Miles terrestres
Nuages
Point de rosée 59 ° F
Humidité 88%
Précipitations 0.00 pouce
Profondeur de la couche neigeuse Non disponible.
7:05 AM 5:57 PM
Lune montante, 39% visible
METAR DTMB 140730Z 12006KT 8000 NSC 17/15 Q1006 NOSIG

10-Day Weather Forecast

No radar image for this location.
×

Almanac

Astronomie

Feb. 14, 2016 Lever Coucher
Temps réel
Crépuscule civil
Crépuscule nautique
Crépuscule astronomique
Lune
Durée de lumière visible
Longueur du jour
Tomorrow will be .
, % of the Moon is Illuminated

Extrêmes aujourd'hui

Country Highs Country Lows

Community

WunderPhotos

Upload Photos

1,892,757 Photos téléchargées !

WunderBlog® & News

Nearby

Qualité de l'air

  Qualité de l'air Indice de la qualité de l'air Polluant
Not available.

Épaisseur de neige

Station Depth Altitude

Activité sismique

Ville Distance Mag. Time & Date
Minimum magnitude displayed is 2.5.

Températures des eaux côtières

Lieu Température

Stations

Stations météo à proximité

Emplacement de la station Température Refroidissement éolien Point de rosée Humidité Vent Precip. Alt. Mise à jour Type